createdAt,value
2018-09-06T00:01:17.106Z,1.30
2018-09-06T00:03:46.284Z,0.93
2018-09-06T00:06:16.291Z,0.90
2018-09-06T00:08:45.342Z,1.33
2018-09-06T00:11:14.442Z,1.00
2018-09-06T00:13:43.503Z,0.90
2018-09-06T00:16:12.543Z,0.90
2018-09-06T00:18:42.473Z,1.13
2018-09-06T00:21:11.536Z,1.07
2018-09-06T00:23:40.556Z,1.00
2018-09-06T00:26:09.597Z,0.93
2018-09-06T00:28:38.690Z,1.27
2018-09-06T00:31:07.767Z,1.33
2018-09-06T00:33:36.986Z,1.23
2018-09-06T00:36:06.126Z,0.90
2018-09-06T00:38:35.426Z,0.90
2018-09-06T00:41:04.466Z,0.83
2018-09-06T00:43:33.497Z,1.00
2018-09-06T00:46:03.385Z,1.43
2018-09-06T00:48:32.539Z,0.97
2018-09-06T00:51:01.758Z,0.80
2018-09-06T00:53:30.832Z,1.57
2018-09-06T00:55:59.964Z,1.03
2018-09-06T00:58:28.955Z,1.03
2018-09-06T01:00:58.010Z,0.83
2018-09-06T01:03:27.060Z,1.27
2018-09-06T01:05:56.116Z,0.73
2018-09-06T01:08:25.253Z,1.00
2018-09-06T01:10:54.372Z,0.70
2018-09-06T01:13:23.445Z,0.97
2018-09-06T01:15:52.521Z,0.70
2018-09-06T01:18:21.720Z,0.80
2018-09-06T01:20:51.481Z,0.90
2018-09-06T01:23:20.503Z,1.13
2018-09-06T01:25:50.285Z,1.40
2018-09-06T01:28:20.799Z,1.20
2018-09-06T01:30:50.409Z,0.60
2018-09-06T01:33:19.511Z,1.33
2018-09-06T01:35:54.473Z,1.13
2018-09-06T01:38:25.430Z,0.90
2018-09-06T01:40:55.202Z,0.67
2018-09-06T01:43:24.327Z,0.83
2018-09-06T01:45:53.318Z,0.70
2018-09-06T01:48:22.380Z,1.17
2018-09-06T01:50:51.448Z,0.67
2018-09-06T01:53:20.520Z,0.77
2018-09-06T01:55:49.666Z,1.00
2018-09-06T01:58:18.791Z,1.23
2018-09-06T02:00:47.967Z,0.87
2018-09-06T02:03:16.993Z,1.10
2018-09-06T02:05:45.999Z,0.73
2018-09-06T02:08:15.090Z,0.80
2018-09-06T02:10:44.112Z,0.80
2018-09-06T02:13:13.135Z,0.87
2018-09-06T02:15:42.179Z,1.00
2018-09-06T02:18:11.190Z,0.90
2018-09-06T02:20:40.912Z,0.70
2018-09-06T02:23:09.957Z,0.83
2018-09-06T02:25:39.100Z,0.73
2018-09-06T02:28:08.175Z,0.60
2018-09-06T02:30:37.149Z,0.90
2018-09-06T02:33:06.322Z,0.73
2018-09-06T02:35:35.477Z,0.93
2018-09-06T02:38:04.541Z,0.93
2018-09-06T02:40:40.833Z,1.03
2018-09-06T02:43:13.880Z,0.60
2018-09-06T02:45:44.195Z,0.97
2018-09-06T02:48:13.261Z,0.80
2018-09-06T02:50:47.334Z,0.90
2018-09-06T02:53:16.967Z,0.90
2018-09-06T02:55:46.806Z,0.80
2018-09-06T02:58:15.823Z,0.50
2018-09-06T03:00:44.936Z,1.10
2018-09-06T03:03:14.016Z,0.67
2018-09-06T03:05:43.060Z,0.90
2018-09-06T03:08:12.132Z,0.73
2018-09-06T03:10:43.224Z,1.00
2018-09-06T03:13:12.225Z,0.90
2018-09-06T03:15:41.366Z,0.87
2018-09-06T03:18:10.541Z,0.90
2018-09-06T03:20:39.641Z,0.80
2018-09-06T03:23:08.815Z,0.67
2018-09-06T03:25:37.911Z,0.90
2018-09-06T03:28:07.688Z,0.90
2018-09-06T03:30:36.704Z,0.80
2018-09-06T03:33:05.813Z,1.17
2018-09-06T03:35:34.889Z,0.70
2018-09-06T03:38:04.557Z,1.17
2018-09-06T03:40:33.545Z,0.60
2018-09-06T03:43:02.578Z,0.80
2018-09-06T03:45:32.351Z,0.97
2018-09-06T03:48:01.395Z,1.10
2018-09-06T03:50:30.494Z,0.63
2018-09-06T03:52:59.598Z,0.90
2018-09-06T03:55:28.664Z,1.00
2018-09-06T03:57:57.885Z,0.90
2018-09-06T04:00:26.876Z,1.03
2018-09-06T04:02:56.047Z,0.90
2018-09-06T04:05:25.013Z,0.97
2018-09-06T04:07:54.037Z,1.30
2018-09-06T04:10:23.054Z,0.93
2018-09-06T04:12:52.101Z,1.10
2018-09-06T04:15:21.742Z,0.80
2018-09-06T04:17:50.826Z,0.80
2018-09-06T04:20:19.947Z,0.90
2018-09-06T04:22:51.070Z,0.97
2018-09-06T04:25:20.177Z,0.90
2018-09-06T04:27:49.753Z,0.80
2018-09-06T04:30:18.853Z,0.70
2018-09-06T04:32:47.872Z,0.77
2018-09-06T04:35:17.075Z,0.97
2018-09-06T04:37:46.128Z,0.60
2018-09-06T04:40:15.285Z,1.10
2018-09-06T04:42:44.305Z,0.70
2018-09-06T04:45:13.338Z,0.80
2018-09-06T04:47:42.472Z,0.93
2018-09-06T04:50:11.564Z,1.17
2018-09-06T04:52:41.637Z,0.93
2018-09-06T04:55:10.788Z,0.80
2018-09-06T04:57:39.813Z,1.20
2018-09-06T05:00:08.988Z,0.90
2018-09-06T05:02:38.141Z,0.70
2018-09-06T05:05:07.210Z,0.97
2018-09-06T05:07:36.213Z,1.60
2018-09-06T05:10:05.510Z,1.10
2018-09-06T05:12:34.523Z,0.80
2018-09-06T05:15:03.679Z,0.90
2018-09-06T05:17:32.712Z,1.40
2018-09-06T05:20:01.805Z,1.00
2018-09-06T05:22:30.885Z,0.73
2018-09-06T05:25:00.030Z,1.00
2018-09-06T05:27:29.196Z,1.17
2018-09-06T05:29:58.948Z,2.07
2018-09-06T05:32:28.033Z,1.43
2018-09-06T05:34:57.074Z,0.80
2018-09-06T05:37:26.727Z,1.40
2018-09-06T05:39:56.248Z,1.40
2018-09-06T05:42:25.261Z,8.37
2018-09-06T05:44:54.267Z,1.50
2018-09-06T05:47:23.314Z,1.00
2018-09-06T05:49:52.376Z,1.00
2018-09-06T05:52:21.809Z,1.03
2018-09-06T05:54:50.869Z,1.30
2018-09-06T05:57:19.888Z,1.63
2018-09-06T05:59:49.294Z,1.13
2018-09-06T06:02:18.410Z,1.73
2018-09-06T06:04:47.417Z,1.70
2018-09-06T06:07:16.512Z,2.23
2018-09-06T06:09:45.539Z,1.40
2018-09-06T06:12:14.581Z,2.00
2018-09-06T06:14:43.610Z,2.37
2018-09-06T06:17:12.676Z,1.63
2018-09-06T06:19:41.702Z,1.40
2018-09-06T06:22:10.778Z,1.57
2018-09-06T06:24:39.850Z,1.70
2018-09-06T06:27:08.951Z,1.50
2018-09-06T06:29:38.039Z,1.23
2018-09-06T06:32:07.155Z,1.73
2018-09-06T06:34:36.285Z,2.20
2018-09-06T06:37:06.091Z,2.57
2018-09-06T06:39:35.388Z,1.13
2018-09-06T06:42:04.553Z,1.27
2018-09-06T06:44:33.563Z,1.57
2018-09-06T06:47:02.840Z,2.53
2018-09-06T06:49:31.889Z,2.83
2018-09-06T06:52:00.977Z,2.30
2018-09-06T06:54:30.061Z,2.73
2018-09-06T06:56:59.128Z,1.80
2018-09-06T06:59:28.166Z,1.40
2018-09-06T07:01:57.548Z,2.10
2018-09-06T07:04:27.213Z,1.40
2018-09-06T07:06:56.424Z,2.10
2018-09-06T07:09:25.927Z,2.33
2018-09-06T07:11:55.053Z,1.53
2018-09-06T07:14:24.051Z,3.27
2018-09-06T07:16:53.603Z,2.27
2018-09-06T07:19:22.892Z,2.50
2018-09-06T07:21:52.759Z,2.60
2018-09-06T07:24:21.854Z,2.33
2018-09-06T07:26:51.250Z,2.27
2018-09-06T07:29:20.900Z,2.30
2018-09-06T07:31:50.590Z,6.53
2018-09-06T07:34:21.047Z,2.30
2018-09-06T07:36:50.036Z,3.20
2018-09-06T07:39:19.202Z,2.90
2018-09-06T07:41:48.460Z,2.07
2018-09-06T07:44:17.691Z,2.60
2018-09-06T07:46:46.803Z,2.50
2018-09-06T07:49:15.949Z,3.50
2018-09-06T07:51:45.243Z,2.63
2018-09-06T07:54:14.345Z,2.83
2018-09-06T07:56:44.416Z,2.47
2018-09-06T07:59:13.630Z,3.77
2018-09-06T08:01:42.800Z,3.07
2018-09-06T08:04:11.917Z,2.40
2018-09-06T08:06:41.222Z,1.87
2018-09-06T08:09:13.245Z,2.70
2018-09-06T08:11:42.627Z,0.83
2018-09-06T08:14:11.820Z,1.70
2018-09-06T08:16:41.192Z,0.87
2018-09-06T08:19:10.419Z,1.03
2018-09-06T08:21:39.594Z,0.70
2018-09-06T08:24:08.746Z,0.70
2018-09-06T08:26:37.842Z,0.47
2018-09-06T08:29:06.972Z,0.50
2018-09-06T08:31:36.273Z,0.90
2018-09-06T08:34:05.380Z,0.53
2018-09-06T08:36:34.546Z,0.50
2018-09-06T08:39:03.872Z,0.50
2018-09-06T08:41:32.993Z,0.80
2018-09-06T08:44:18.775Z,0.63
2018-09-06T08:46:47.803Z,0.40
2018-09-06T08:49:20.043Z,0.50
2018-09-06T08:51:49.216Z,0.60
2018-09-06T08:54:18.233Z,0.87
2018-09-06T08:56:47.358Z,0.60
2018-09-06T08:59:17.438Z,0.60
2018-09-06T09:01:47.255Z,0.47
2018-09-06T09:04:16.604Z,0.67
2018-09-06T09:06:46.074Z,0.50
2018-09-06T09:09:16.448Z,0.63
2018-09-06T09:11:46.270Z,0.80
2018-09-06T09:14:15.637Z,0.53
2018-09-06T09:16:45.738Z,1.27
2018-09-06T09:19:15.804Z,0.60
2018-09-06T09:21:45.716Z,0.90
2018-09-06T09:24:14.832Z,0.50
2018-09-06T09:26:44.384Z,0.60
2018-09-06T09:29:13.522Z,1.07
2018-09-06T09:31:42.955Z,0.70
2018-09-06T09:34:13.397Z,0.40
2018-09-06T09:36:42.525Z,0.53
2018-09-06T09:39:13.554Z,2.83
2018-09-06T09:41:42.834Z,0.70
2018-09-06T09:44:13.929Z,0.87
2018-09-06T09:49:11.567Z,0.70
2018-09-06T09:51:41.611Z,0.60
2018-09-06T09:54:19.931Z,0.70
2018-09-06T09:56:49.392Z,1.07
2018-09-06T09:59:19.254Z,0.97
2018-09-06T10:01:53.432Z,0.60
2018-09-06T10:04:44.651Z,0.80
2018-09-06T10:07:19.369Z,0.53
2018-09-06T10:09:55.267Z,1.30
2018-09-06T10:12:26.343Z,1.20
2018-09-06T10:14:56.255Z,0.70
2018-09-06T10:17:25.456Z,0.90
2018-09-06T10:19:55.215Z,0.50
2018-09-06T10:22:24.354Z,1.93
2018-09-06T10:24:54.891Z,0.90
2018-09-06T10:27:24.135Z,0.27
2018-09-06T10:29:53.763Z,0.43
2018-09-06T10:32:22.996Z,0.57
2018-09-06T10:34:52.318Z,0.50
2018-09-06T10:37:21.813Z,1.83
2018-09-06T10:39:51.725Z,0.70
2018-09-06T10:42:20.976Z,0.63
2018-09-06T10:44:52.621Z,1.63
2018-09-06T10:47:22.012Z,0.77
2018-09-06T10:49:52.144Z,0.70
2018-09-06T10:52:21.911Z,0.50
2018-09-06T10:57:34.430Z,0.63
2018-09-06T11:00:03.585Z,0.60
2018-09-06T11:02:32.989Z,0.60
2018-09-06T11:05:07.374Z,0.50
2018-09-06T11:10:11.764Z,0.50
2018-09-06T11:12:40.909Z,0.90
2018-09-06T11:15:10.122Z,0.93
2018-09-06T11:17:40.185Z,0.70
2018-09-06T11:20:13.808Z,0.53
2018-09-06T11:22:43.036Z,0.50
2018-09-06T11:25:12.658Z,0.63
2018-09-06T11:27:41.689Z,0.90
2018-09-06T11:30:13.411Z,0.73
2018-09-06T11:32:43.231Z,1.13
2018-09-06T11:35:12.302Z,0.57
2018-09-06T11:37:41.487Z,0.57
2018-09-06T11:40:11.499Z,0.90
2018-09-06T11:42:40.646Z,0.60
2018-09-06T11:45:11.154Z,0.60
2018-09-06T11:47:40.932Z,0.77
2018-09-06T11:53:04.630Z,0.90
2018-09-06T11:55:34.515Z,0.57
2018-09-06T11:58:03.590Z,0.63
2018-09-06T12:00:34.371Z,0.60
2018-09-06T12:03:03.719Z,0.70
2018-09-06T12:05:34.594Z,0.70
2018-09-06T12:08:04.570Z,0.57
2018-09-06T12:10:34.341Z,0.70
2018-09-06T12:13:03.679Z,0.50
2018-09-06T12:15:32.846Z,0.90
2018-09-06T12:18:02.001Z,0.70
2018-09-06T12:20:35.901Z,0.50
2018-09-06T12:23:06.104Z,0.53
2018-09-06T12:25:35.540Z,0.60
2018-09-06T12:28:05.818Z,0.40
2018-09-06T12:30:36.954Z,0.77
2018-09-06T12:33:06.397Z,0.63
2018-09-06T12:35:37.403Z,0.60
2018-09-06T12:38:08.060Z,1.00
2018-09-06T12:40:41.136Z,1.43
2018-09-06T12:43:10.262Z,0.50
2018-09-06T12:45:56.492Z,0.40
2018-09-06T12:48:26.508Z,0.70
2018-09-06T12:50:56.996Z,1.10
2018-09-06T12:53:26.756Z,0.80
2018-09-06T12:55:55.905Z,2.27
2018-09-06T12:58:25.085Z,1.40
2018-09-06T13:00:54.826Z,1.27
2018-09-06T13:03:24.447Z,1.43
2018-09-06T13:05:54.677Z,0.90
2018-09-06T13:08:24.062Z,1.90
2018-09-06T13:10:53.195Z,0.70
2018-09-06T13:13:22.457Z,0.60
2018-09-06T13:15:51.588Z,2.67
2018-09-06T13:18:21.019Z,0.80
2018-09-06T13:20:50.100Z,1.50
2018-09-06T13:23:19.223Z,0.50
2018-09-06T13:25:49.304Z,0.80
2018-09-06T13:28:18.532Z,1.33
2018-09-06T13:30:47.641Z,0.50
2018-09-06T13:33:16.732Z,0.70
2018-09-06T13:35:46.033Z,1.30
2018-09-06T13:38:15.157Z,1.67
2018-09-06T13:40:44.412Z,0.97
2018-09-06T13:43:16.506Z,1.60
2018-09-06T13:45:45.811Z,1.10
2018-09-06T13:48:15.197Z,1.53
2018-09-06T13:50:45.710Z,1.70
2018-09-06T13:53:17.041Z,1.80
2018-09-06T13:55:46.210Z,2.50
2018-09-06T13:58:15.825Z,1.43
2018-09-06T14:00:45.045Z,2.40
2018-09-06T14:03:18.581Z,1.83
2018-09-06T14:05:48.020Z,1.83
2018-09-06T14:08:27.017Z,2.50
2018-09-06T14:10:56.273Z,4.10
2018-09-06T14:13:25.305Z,2.33
2018-09-06T14:15:56.700Z,3.20
2018-09-06T14:18:25.964Z,1.90
2018-09-06T14:20:55.316Z,1.70
2018-09-06T14:23:24.423Z,1.93
2018-09-06T14:25:55.197Z,2.80
2018-09-06T14:28:24.362Z,1.67
2018-09-06T14:30:53.549Z,2.33
2018-09-06T14:33:22.600Z,2.33
2018-09-06T14:35:52.928Z,2.63
2018-09-06T14:38:22.267Z,2.17
2018-09-06T14:40:51.453Z,2.20
2018-09-06T14:43:20.600Z,1.77
2018-09-06T14:45:49.626Z,1.77
2018-09-06T14:48:18.683Z,2.80
2018-09-06T14:50:47.987Z,1.60
2018-09-06T14:53:17.047Z,2.20
2018-09-06T14:55:46.141Z,2.33
2018-09-06T14:58:16.481Z,2.70
2018-09-06T15:00:46.341Z,1.40
2018-09-06T15:03:15.501Z,2.00
2018-09-06T15:05:44.834Z,2.33
2018-09-06T15:08:14.054Z,1.23
2018-09-06T15:10:43.149Z,2.20
2018-09-06T15:13:12.234Z,1.23
2018-09-06T15:15:49.390Z,1.67
2018-09-06T15:18:20.804Z,1.97
2018-09-06T15:20:49.949Z,1.57
2018-09-06T15:23:22.810Z,2.90
2018-09-06T15:25:53.754Z,1.70
2018-09-06T15:28:28.659Z,2.33
2018-09-06T15:30:57.998Z,1.70
2018-09-06T15:33:27.217Z,1.93
2018-09-06T15:35:56.344Z,1.60
2018-09-06T15:38:25.536Z,2.73
2018-09-06T15:40:54.950Z,2.17
2018-09-06T15:43:24.193Z,2.63
2018-09-06T15:45:53.317Z,2.90
2018-09-06T15:48:22.347Z,1.80
2018-09-06T15:50:51.406Z,1.53
2018-09-06T15:53:20.574Z,2.27
2018-09-06T15:55:50.030Z,1.63
2018-09-06T15:58:19.058Z,2.30
2018-09-06T16:03:41.420Z,2.97
2018-09-06T16:06:11.425Z,1.20
2018-09-06T16:08:40.581Z,1.87
2018-09-06T16:11:09.678Z,1.50
2018-09-06T16:13:39.169Z,1.70
2018-09-06T16:16:08.976Z,2.40
2018-09-06T16:18:38.240Z,2.13
2018-09-06T16:21:10.949Z,2.40
2018-09-06T16:23:42.206Z,2.17
2018-09-06T16:26:12.317Z,2.63
2018-09-06T16:28:41.390Z,3.17
2018-09-06T16:31:10.396Z,2.17
2018-09-06T16:33:39.518Z,2.30
2018-09-06T16:36:08.771Z,1.97
2018-09-06T16:38:37.867Z,3.40
2018-09-06T16:41:07.141Z,1.43
2018-09-06T16:43:36.259Z,1.53
2018-09-06T16:46:05.281Z,0.90
2018-09-06T16:48:34.431Z,1.17
2018-09-06T16:51:03.735Z,2.47
2018-09-06T16:53:32.797Z,1.77
2018-09-06T16:56:01.879Z,1.77
2018-09-06T16:58:30.872Z,2.47
2018-09-06T17:01:00.029Z,1.17
2018-09-06T17:03:29.018Z,0.30
2018-09-06T17:05:58.031Z,0.27
2018-09-06T17:08:27.200Z,0.60
2018-09-06T17:10:56.300Z,0.80
2018-09-06T17:13:25.367Z,0.50
2018-09-06T17:15:54.394Z,0.90
2018-09-06T17:18:28.760Z,1.10
2018-09-06T17:20:57.899Z,0.60
2018-09-06T17:23:26.965Z,1.23
2018-09-06T17:25:55.972Z,0.70
2018-09-06T17:28:25.024Z,1.23
2018-09-06T17:30:54.122Z,1.93
2018-09-06T17:33:23.339Z,1.53
2018-09-06T17:35:52.356Z,1.00
2018-09-06T17:38:21.388Z,1.67
2018-09-06T17:40:50.442Z,0.90
2018-09-06T17:43:19.473Z,1.33
2018-09-06T17:45:48.596Z,1.40
2018-09-06T17:48:18.081Z,0.70
2018-09-06T17:50:47.120Z,0.40
2018-09-06T17:53:16.298Z,0.70
2018-09-06T17:55:45.385Z,0.80
2018-09-06T17:58:14.382Z,0.90
2018-09-06T18:00:46.776Z,0.50
2018-09-06T18:03:16.582Z,0.30
2018-09-06T18:05:45.635Z,0.40
2018-09-06T18:08:27.857Z,0.50
2018-09-06T18:13:53.190Z,0.30
2018-09-06T18:16:23.260Z,0.30
2018-09-06T18:18:53.913Z,0.87
2018-09-06T18:21:23.418Z,0.70
2018-09-06T18:24:00.822Z,0.30
2018-09-06T18:26:33.204Z,0.40
2018-09-06T18:29:10.883Z,0.27
2018-09-06T18:31:40.843Z,0.37
2018-09-06T18:34:09.910Z,0.30
2018-09-06T18:36:39.508Z,0.20
2018-09-06T18:39:09.160Z,0.57
2018-09-06T18:41:38.739Z,0.40
2018-09-06T18:44:07.994Z,0.40
2018-09-06T18:46:37.149Z,0.30
2018-09-06T18:49:06.233Z,0.40
2018-09-06T18:51:35.405Z,0.60
2018-09-06T18:54:05.128Z,0.40
2018-09-06T18:56:34.150Z,0.53
2018-09-06T18:59:03.327Z,0.30
2018-09-06T19:01:32.337Z,0.30
2018-09-06T19:04:01.517Z,0.30
2018-09-06T19:06:30.622Z,0.40
2018-09-06T19:08:59.675Z,0.10
2018-09-06T19:11:29.711Z,0.37
2018-09-06T19:13:58.927Z,0.23
2018-09-06T19:16:28.001Z,0.50
2018-09-06T19:18:57.011Z,0.20
2018-09-06T19:21:26.104Z,0.30
2018-09-06T19:23:55.300Z,0.20
2018-09-06T19:26:24.295Z,0.20
2018-09-06T19:28:53.349Z,0.50
2018-09-06T19:31:22.761Z,0.17
2018-09-06T19:33:52.856Z,0.27
2018-09-06T19:36:22.073Z,0.40
2018-09-06T19:38:51.182Z,0.20
2018-09-06T19:41:20.804Z,0.20
2018-09-06T19:43:49.872Z,0.20
2018-09-06T19:46:19.148Z,0.20
2018-09-06T19:48:48.293Z,0.27
2018-09-06T19:51:17.392Z,0.20
2018-09-06T19:53:46.393Z,0.10
2018-09-06T19:56:15.445Z,0.57
2018-09-06T19:58:44.634Z,0.40
2018-09-06T20:04:08.576Z,0.23
2018-09-06T20:06:44.449Z,0.20
2018-09-06T20:09:13.515Z,0.13
2018-09-06T20:11:42.612Z,0.20
2018-09-06T20:14:11.691Z,0.20
2018-09-06T20:16:40.818Z,0.23
2018-09-06T20:19:09.939Z,0.30
2018-09-06T20:21:39.026Z,0.33
2018-09-06T20:24:08.116Z,0.60
2018-09-06T20:26:37.206Z,0.30
2018-09-06T20:29:06.309Z,0.57
2018-09-06T20:31:35.365Z,0.20
2018-09-06T20:34:04.946Z,0.30
2018-09-06T20:36:34.039Z,0.40
2018-09-06T20:39:03.184Z,0.40
2018-09-06T20:41:32.234Z,0.33
2018-09-06T20:44:01.268Z,0.73
2018-09-06T20:46:30.356Z,0.47
2018-09-06T20:49:00.221Z,0.47
2018-09-06T20:51:29.537Z,0.30
2018-09-06T20:53:58.843Z,0.50
2018-09-06T20:56:27.937Z,0.40
2018-09-06T20:58:56.977Z,0.40
2018-09-06T21:01:26.295Z,0.43
2018-09-06T21:03:56.034Z,0.30
2018-09-06T21:06:25.211Z,0.50
2018-09-06T21:08:54.649Z,0.30
2018-09-06T21:11:23.772Z,0.30
2018-09-06T21:13:53.243Z,0.20
2018-09-06T21:16:23.502Z,0.40
2018-09-06T21:18:54.558Z,0.70
2018-09-06T21:21:23.672Z,0.20
2018-09-06T21:23:53.204Z,0.37
2018-09-06T21:26:22.361Z,0.50
2018-09-06T21:28:51.428Z,0.40
2018-09-06T21:31:20.538Z,0.30
2018-09-06T21:33:49.948Z,0.40
2018-09-06T21:36:19.110Z,0.70
2018-09-06T21:38:48.148Z,1.03
2018-09-06T21:41:17.163Z,0.20
2018-09-06T21:43:46.892Z,1.30
2018-09-06T21:46:16.128Z,0.50
2018-09-06T21:48:45.169Z,1.67
2018-09-06T21:51:14.163Z,0.30
2018-09-06T21:53:43.199Z,0.30
2018-09-06T21:56:12.243Z,0.80
2018-09-06T21:58:41.521Z,0.40
2018-09-06T22:01:11.041Z,0.50
2018-09-06T22:03:45.850Z,0.47
2018-09-06T22:06:15.939Z,0.60
2018-09-06T22:08:45.090Z,0.67
2018-09-06T22:11:14.181Z,0.50
2018-09-06T22:13:43.176Z,0.40
2018-09-06T22:16:12.213Z,0.43
2018-09-06T22:18:59.050Z,0.23
2018-09-06T22:21:28.317Z,0.60
2018-09-06T22:24:03.869Z,0.70
2018-09-06T22:26:37.433Z,0.30
2018-09-06T22:29:23.434Z,0.53
2018-09-06T22:32:07.802Z,0.50
2018-09-06T22:34:53.873Z,0.63
2018-09-06T22:37:23.272Z,0.40
2018-09-06T22:40:04.550Z,0.30
2018-09-06T22:42:52.984Z,0.60
2018-09-06T22:45:36.166Z,0.67
2018-09-06T22:48:08.445Z,0.40
2018-09-06T22:50:52.175Z,0.40
2018-09-06T22:53:36.810Z,0.40
2018-09-06T22:56:23.879Z,0.40
2018-09-06T22:59:09.192Z,0.50
2018-09-06T23:01:38.610Z,0.40
2018-09-06T23:04:09.188Z,0.37
2018-09-06T23:06:43.171Z,0.40
2018-09-06T23:09:30.424Z,0.30
2018-09-06T23:11:59.450Z,0.27
2018-09-06T23:14:28.726Z,0.53
2018-09-06T23:16:58.167Z,0.77
2018-09-06T23:19:27.190Z,0.60
2018-09-06T23:21:56.225Z,0.70
2018-09-06T23:24:25.254Z,0.50
2018-09-06T23:26:54.403Z,0.40
2018-09-06T23:29:23.996Z,0.50
2018-09-06T23:31:53.088Z,0.50
2018-09-06T23:34:22.114Z,0.57
2018-09-06T23:36:52.050Z,0.40
2018-09-06T23:39:23.139Z,0.30
2018-09-06T23:41:52.829Z,0.40
2018-09-06T23:44:22.003Z,0.43
2018-09-06T23:46:51.407Z,0.40
2018-09-06T23:49:20.465Z,0.30
2018-09-06T23:51:49.995Z,0.70
2018-09-06T23:54:19.147Z,0.40
2018-09-06T23:56:48.212Z,0.50
2018-09-06T23:59:17.822Z,1.23
